sensor_id;sensor_type;location;lat;lon;timestamp;pressure;altitude;pressure_sealevel;temperature;humidity
10946;BME280;5525;42.648;23.368;2023-05-09T00:00:42;94957.41;;;12.64;100.00
10946;BME280;5525;42.648;23.368;2023-05-09T00:03:09;94955.72;;;12.51;100.00
10946;BME280;5525;42.648;23.368;2023-05-09T00:05:37;94962.28;;;12.50;100.00
10946;BME280;5525;42.648;23.368;2023-05-09T00:08:04;94953.75;;;12.60;100.00
10946;BME280;5525;42.648;23.368;2023-05-09T00:10:32;94954.22;;;12.62;100.00
10946;BME280;5525;42.648;23.368;2023-05-09T00:12:58;94949.53;;;12.71;100.00
10946;BME280;5525;42.648;23.368;2023-05-09T00:15:25;94945.84;;;12.75;100.00
10946;BME280;5525;42.648;23.368;2023-05-09T00:17:53;94951.44;;;12.70;100.00
10946;BME280;5525;42.648;23.368;2023-05-09T00:20:19;94943.94;;;12.76;100.00
10946;BME280;5525;42.648;23.368;2023-05-09T00:22:46;94943.13;;;12.75;100.00
10946;BME280;5525;42.648;23.368;2023-05-09T00:25:13;94943.44;;;12.74;100.00
10946;BME280;5525;42.648;23.368;2023-05-09T00:27:41;94946.44;;;12.60;100.00
10946;BME280;5525;42.648;23.368;2023-05-09T00:30:08;94951.84;;;12.60;100.00
10946;BME280;5525;42.648;23.368;2023-05-09T00:32:35;94940.28;;;12.72;100.00
10946;BME280;5525;42.648;23.368;2023-05-09T00:35:03;94937.97;;;12.82;100.00
10946;BME280;5525;42.648;23.368;2023-05-09T00:37:30;94940.41;;;12.75;100.00
10946;BME280;5525;42.648;23.368;2023-05-09T00:39:56;94948.53;;;12.75;100.00
10946;BME280;5525;42.648;23.368;2023-05-09T00:42:23;94942.31;;;12.75;100.00
10946;BME280;5525;42.648;23.368;2023-05-09T00:44:51;94941.00;;;12.81;100.00
10946;BME280;5525;42.648;23.368;2023-05-09T00:49:45;94935.97;;;12.71;100.00
10946;BME280;5525;42.648;23.368;2023-05-09T00:52:11;94950.47;;;12.95;100.00
10946;BME280;5525;42.648;23.368;2023-05-09T00:54:38;94946.88;;;12.83;100.00
10946;BME280;5525;42.648;23.368;2023-05-09T00:57:05;94949.41;;;12.88;100.00
10946;BME280;5525;42.648;23.368;2023-05-09T00:59:32;94943.31;;;12.91;100.00
10946;BME280;5525;42.648;23.368;2023-05-09T01:02:00;94940.34;;;12.63;100.00
10946;BME280;5525;42.648;23.368;2023-05-09T01:04:26;94944.44;;;12.69;100.00
10946;BME280;5525;42.648;23.368;2023-05-09T01:06:59;94950.78;;;12.94;100.00
10946;BME280;5525;42.648;23.368;2023-05-09T01:09:33;94944.38;;;12.98;100.00
10946;BME280;5525;42.648;23.368;2023-05-09T01:12:09;94959.00;;;13.06;100.00
10946;BME280;5525;42.648;23.368;2023-05-09T01:14:43;94941.00;;;13.22;100.00
10946;BME280;5525;42.648;23.368;2023-05-09T01:17:34;94942.88;;;13.09;100.00
10946;BME280;5525;42.648;23.368;2023-05-09T01:20:12;94946.44;;;13.22;100.00
10946;BME280;5525;42.648;23.368;2023-05-09T01:22:45;94945.41;;;13.14;100.00
10946;BME280;5525;42.648;23.368;2023-05-09T01:25:35;94937.59;;;13.13;100.00
10946;BME280;5525;42.648;23.368;2023-05-09T01:28:12;94941.69;;;13.19;100.00
10946;BME280;5525;42.648;23.368;2023-05-09T01:30:43;94944.13;;;13.12;100.00
10946;BME280;5525;42.648;23.368;2023-05-09T01:33:12;94942.28;;;13.04;100.00
10946;BME280;5525;42.648;23.368;2023-05-09T01:35:43;94940.38;;;13.04;100.00
10946;BME280;5525;42.648;23.368;2023-05-09T01:38:16;94938.31;;;13.01;100.00
10946;BME280;5525;42.648;23.368;2023-05-09T01:40:47;94942.53;;;13.31;100.00
10946;BME280;5525;42.648;23.368;2023-05-09T01:43:15;94932.31;;;13.28;100.00
10946;BME280;5525;42.648;23.368;2023-05-09T01:45:44;94937.75;;;13.28;100.00
10946;BME280;5525;42.648;23.368;2023-05-09T01:48:13;94940.69;;;13.23;100.00
10946;BME280;5525;42.648;23.368;2023-05-09T01:50:42;94941.88;;;13.14;100.00
10946;BME280;5525;42.648;23.368;2023-05-09T01:53:10;94940.41;;;13.16;100.00
10946;BME280;5525;42.648;23.368;2023-05-09T01:55:38;94937.88;;;13.32;100.00
10946;BME280;5525;42.648;23.368;2023-05-09T01:58:07;94941.63;;;13.39;100.00
10946;BME280;5525;42.648;23.368;2023-05-09T02:00:34;94945.81;;;13.37;100.00
10946;BME280;5525;42.648;23.368;2023-05-09T02:03:03;94949.47;;;13.20;100.00
10946;BME280;5525;42.648;23.368;2023-05-09T02:05:31;94940.41;;;12.96;100.00
10946;BME280;5525;42.648;23.368;2023-05-09T02:07:58;94943.13;;;13.16;100.00
10946;BME280;5525;42.648;23.368;2023-05-09T02:10:26;94940.00;;;13.26;100.00
10946;BME280;5525;42.648;23.368;2023-05-09T02:12:53;94948.91;;;13.27;100.00
10946;BME280;5525;42.648;23.368;2023-05-09T02:15:20;94943.50;;;13.27;100.00
10946;BME280;5525;42.648;23.368;2023-05-09T02:17:47;94937.38;;;13.18;100.00
10946;BME280;5525;42.648;23.368;2023-05-09T02:20:15;94942.06;;;13.29;100.00
10946;BME280;5525;42.648;23.368;2023-05-09T02:22:43;94941.47;;;13.24;100.00
10946;BME280;5525;42.648;23.368;2023-05-09T02:25:10;94934.59;;;13.26;100.00
10946;BME280;5525;42.648;23.368;2023-05-09T02:27:39;94931.06;;;13.26;100.00
10946;BME280;5525;42.648;23.368;2023-05-09T02:30:11;94937.53;;;13.33;100.00
10946;BME280;5525;42.648;23.368;2023-05-09T02:32:42;94939.47;;;13.33;100.00
10946;BME280;5525;42.648;23.368;2023-05-09T02:35:11;94947.84;;;13.40;100.00
10946;BME280;5525;42.648;23.368;2023-05-09T02:37:40;94934.38;;;13.31;100.00
10946;BME280;5525;42.648;23.368;2023-05-09T02:40:08;94942.78;;;13.18;100.00
10946;BME280;5525;42.648;23.368;2023-05-09T02:42:35;94940.47;;;12.87;100.00
10946;BME280;5525;42.648;23.368;2023-05-09T02:45:02;94945.38;;;12.94;100.00
10946;BME280;5525;42.648;23.368;2023-05-09T02:47:28;94936.91;;;12.95;100.00
10946;BME280;5525;42.648;23.368;2023-05-09T02:49:55;94939.75;;;12.99;100.00
10946;BME280;5525;42.648;23.368;2023-05-09T02:52:22;94943.56;;;12.98;100.00
10946;BME280;5525;42.648;23.368;2023-05-09T02:54:50;94943.91;;;12.96;100.00
10946;BME280;5525;42.648;23.368;2023-05-09T02:57:16;94943.47;;;12.94;100.00
10946;BME280;5525;42.648;23.368;2023-05-09T02:59:43;94930.16;;;12.81;100.00
10946;BME280;5525;42.648;23.368;2023-05-09T03:02:10;94948.16;;;12.85;100.00
10946;BME280;5525;42.648;23.368;2023-05-09T03:04:36;94951.50;;;12.82;100.00
10946;BME280;5525;42.648;23.368;2023-05-09T03:07:03;94951.84;;;12.81;100.00
10946;BME280;5525;42.648;23.368;2023-05-09T03:09:30;94952.03;;;12.96;100.00
10946;BME280;5525;42.648;23.368;2023-05-09T03:11:58;94955.06;;;12.95;100.00
10946;BME280;5525;42.648;23.368;2023-05-09T03:14:24;94954.34;;;12.86;100.00
10946;BME280;5525;42.648;23.368;2023-05-09T03:16:51;94964.47;;;12.77;100.00
10946;BME280;5525;42.648;23.368;2023-05-09T03:19:18;94970.41;;;12.70;100.00
10946;BME280;5525;42.648;23.368;2023-05-09T03:21:44;94972.34;;;12.70;100.00
10946;BME280;5525;42.648;23.368;2023-05-09T03:24:11;94983.28;;;12.73;100.00
10946;BME280;5525;42.648;23.368;2023-05-09T03:26:38;94983.94;;;12.70;100.00
10946;BME280;5525;42.648;23.368;2023-05-09T03:29:06;94991.75;;;12.72;100.00
10946;BME280;5525;42.648;23.368;2023-05-09T03:31:33;94986.53;;;12.67;100.00
10946;BME280;5525;42.648;23.368;2023-05-09T03:34:00;94994.41;;;12.80;100.00
10946;BME280;5525;42.648;23.368;2023-05-09T03:36:27;94995.25;;;12.72;100.00
10946;BME280;5525;42.648;23.368;2023-05-09T03:38:53;95003.06;;;12.74;100.00
10946;BME280;5525;42.648;23.368;2023-05-09T03:41:20;94999.69;;;12.77;100.00
10946;BME280;5525;42.648;23.368;2023-05-09T03:43:47;94996.25;;;12.68;100.00
10946;BME280;5525;42.648;23.368;2023-05-09T03:46:15;94994.66;;;12.67;100.00
10946;BME280;5525;42.648;23.368;2023-05-09T03:48:41;95005.38;;;12.63;100.00
10946;BME280;5525;42.648;23.368;2023-05-09T03:51:08;95003.16;;;12.57;100.00
10946;BME280;5525;42.648;23.368;2023-05-09T03:53:35;95000.75;;;12.64;100.00
10946;BME280;5525;42.648;23.368;2023-05-09T03:56:01;94998.44;;;12.74;100.00
10946;BME280;5525;42.648;23.368;2023-05-09T03:58:28;95006.34;;;12.79;100.00
10946;BME280;5525;42.648;23.368;2023-05-09T04:00:55;95003.59;;;12.88;100.00
10946;BME280;5525;42.648;23.368;2023-05-09T04:03:23;95003.75;;;12.91;100.00
10946;BME280;5525;42.648;23.368;2023-05-09T04:05:51;94999.38;;;13.61;100.00
10946;BME280;5525;42.648;23.368;2023-05-09T04:08:17;95008.00;;;14.67;100.00
10946;BME280;5525;42.648;23.368;2023-05-09T04:10:44;95004.31;;;15.23;100.00
10946;BME280;5525;42.648;23.368;2023-05-09T04:13:11;95002.41;;;15.79;100.00
10946;BME280;5525;42.648;23.368;2023-05-09T04:15:37;95002.69;;;15.62;100.00
10946;BME280;5525;42.648;23.368;2023-05-09T04:18:04;95000.91;;;15.14;100.00
10946;BME280;5525;42.648;23.368;2023-05-09T04:20:33;94991.69;;;14.79;100.00
10946;BME280;5525;42.648;23.368;2023-05-09T04:23:00;95008.34;;;14.66;100.00
10946;BME280;5525;42.648;23.368;2023-05-09T04:25:27;95005.97;;;14.76;100.00
10946;BME280;5525;42.648;23.368;2023-05-09T04:27:55;95006.97;;;16.34;100.00
10946;BME280;5525;42.648;23.368;2023-05-09T04:30:22;95004.47;;;18.43;100.00
10946;BME280;5525;42.648;23.368;2023-05-09T04:32:51;95007.97;;;19.15;100.00
10946;BME280;5525;42.648;23.368;2023-05-09T04:35:18;95006.84;;;20.45;100.00
10946;BME280;5525;42.648;23.368;2023-05-09T04:37:46;95001.22;;;21.22;100.00
10946;BME280;5525;42.648;23.368;2023-05-09T04:40:13;95011.94;;;22.30;90.83
10946;BME280;5525;42.648;23.368;2023-05-09T04:42:40;95012.41;;;23.09;82.60
10946;BME280;5525;42.648;23.368;2023-05-09T04:45:07;95005.75;;;23.39;78.40
10946;BME280;5525;42.648;23.368;2023-05-09T04:47:36;95010.53;;;24.31;71.41
10946;BME280;5525;42.648;23.368;2023-05-09T04:50:03;95022.06;;;25.36;66.30
10946;BME280;5525;42.648;23.368;2023-05-09T04:52:30;95014.78;;;24.50;65.53
10946;BME280;5525;42.648;23.368;2023-05-09T04:54:58;95017.91;;;23.23;70.12
10946;BME280;5525;42.648;23.368;2023-05-09T04:57:25;95016.38;;;22.91;75.56
10946;BME280;5525;42.648;23.368;2023-05-09T04:59:51;95017.91;;;23.48;71.92
10946;BME280;5525;42.648;23.368;2023-05-09T05:02:18;95016.66;;;22.33;76.62
10946;BME280;5525;42.648;23.368;2023-05-09T05:04:45;95017.91;;;20.52;87.26
10946;BME280;5525;42.648;23.368;2023-05-09T05:07:12;95011.03;;;19.66;98.35
10946;BME280;5525;42.648;23.368;2023-05-09T05:09:38;95004.13;;;19.20;100.00
10946;BME280;5525;42.648;23.368;2023-05-09T05:12:07;95012.63;;;18.40;100.00
10946;BME280;5525;42.648;23.368;2023-05-09T05:14:33;95002.03;;;17.40;100.00
10946;BME280;5525;42.648;23.368;2023-05-09T05:17:00;94999.44;;;16.93;100.00
10946;BME280;5525;42.648;23.368;2023-05-09T05:19:26;95012.44;;;16.49;100.00
10946;BME280;5525;42.648;23.368;2023-05-09T05:21:53;95007.19;;;16.13;100.00
10946;BME280;5525;42.648;23.368;2023-05-09T05:24:20;95003.66;;;15.82;100.00
10946;BME280;5525;42.648;23.368;2023-05-09T05:26:46;95009.19;;;15.58;100.00
10946;BME280;5525;42.648;23.368;2023-05-09T05:29:14;95010.72;;;15.71;100.00
10946;BME280;5525;42.648;23.368;2023-05-09T05:31:41;95011.72;;;15.78;100.00
10946;BME280;5525;42.648;23.368;2023-05-09T05:34:08;95015.91;;;15.36;100.00
10946;BME280;5525;42.648;23.368;2023-05-09T05:36:35;95014.28;;;15.19;100.00
10946;BME280;5525;42.648;23.368;2023-05-09T05:39:01;95018.69;;;15.24;100.00
10946;BME280;5525;42.648;23.368;2023-05-09T05:41:28;95013.66;;;14.86;100.00
10946;BME280;5525;42.648;23.368;2023-05-09T05:43:55;95011.84;;;14.78;100.00
10946;BME280;5525;42.648;23.368;2023-05-09T05:46:23;95018.09;;;14.79;100.00
10946;BME280;5525;42.648;23.368;2023-05-09T05:48:50;95014.13;;;14.52;100.00
10946;BME280;5525;42.648;23.368;2023-05-09T05:51:16;95012.78;;;14.46;100.00
10946;BME280;5525;42.648;23.368;2023-05-09T05:53:43;95015.84;;;14.45;100.00
10946;BME280;5525;42.648;23.368;2023-05-09T05:56:10;95020.34;;;14.41;100.00
10946;BME280;5525;42.648;23.368;2023-05-09T05:58:36;95014.69;;;14.46;100.00
10946;BME280;5525;42.648;23.368;2023-05-09T06:01:03;95018.88;;;14.67;100.00
10946;BME280;5525;42.648;23.368;2023-05-09T06:03:32;95015.47;;;14.82;100.00
10946;BME280;5525;42.648;23.368;2023-05-09T06:05:58;95014.22;;;14.80;100.00
10946;BME280;5525;42.648;23.368;2023-05-09T06:08:25;95016.72;;;14.97;100.00
10946;BME280;5525;42.648;23.368;2023-05-09T06:10:52;95019.41;;;15.09;100.00
10946;BME280;5525;42.648;23.368;2023-05-09T06:13:18;95022.00;;;15.17;100.00
10946;BME280;5525;42.648;23.368;2023-05-09T06:15:45;95015.81;;;15.45;100.00
10946;BME280;5525;42.648;23.368;2023-05-09T06:18:12;95023.06;;;15.53;100.00
10946;BME280;5525;42.648;23.368;2023-05-09T06:20:40;95019.34;;;15.73;100.00
10946;BME280;5525;42.648;23.368;2023-05-09T06:23:07;95015.31;;;15.82;100.00
10946;BME280;5525;42.648;23.368;2023-05-09T06:25:33;95015.06;;;16.46;100.00
10946;BME280;5525;42.648;23.368;2023-05-09T06:28:00;95013.25;;;17.00;100.00
10946;BME280;5525;42.648;23.368;2023-05-09T06:30:27;95019.25;;;16.74;100.00
10946;BME280;5525;42.648;23.368;2023-05-09T06:32:53;95025.28;;;16.49;100.00
10946;BME280;5525;42.648;23.368;2023-05-09T06:35:22;95024.53;;;16.36;100.00
10946;BME280;5525;42.648;23.368;2023-05-09T06:37:50;95021.38;;;16.34;100.00
10946;BME280;5525;42.648;23.368;2023-05-09T06:40:17;95008.94;;;16.06;100.00
10946;BME280;5525;42.648;23.368;2023-05-09T06:42:43;95018.34;;;15.93;100.00
10946;BME280;5525;42.648;23.368;2023-05-09T06:45:10;95017.00;;;15.59;100.00
10946;BME280;5525;42.648;23.368;2023-05-09T06:47:37;95015.25;;;15.51;100.00
10946;BME280;5525;42.648;23.368;2023-05-09T06:50:04;95017.88;;;15.36;100.00
10946;BME280;5525;42.648;23.368;2023-05-09T06:52:31;95022.03;;;15.57;100.00
10946;BME280;5525;42.648;23.368;2023-05-09T06:54:59;95009.69;;;15.75;100.00
10946;BME280;5525;42.648;23.368;2023-05-09T06:57:26;95018.38;;;15.65;100.00
10946;BME280;5525;42.648;23.368;2023-05-09T06:59:53;95016.31;;;15.62;100.00
10946;BME280;5525;42.648;23.368;2023-05-09T07:02:19;95013.38;;;15.83;100.00
10946;BME280;5525;42.648;23.368;2023-05-09T07:04:46;95014.22;;;15.99;100.00
10946;BME280;5525;42.648;23.368;2023-05-09T07:07:13;95011.06;;;15.97;100.00
10946;BME280;5525;42.648;23.368;2023-05-09T07:09:40;95006.44;;;16.13;100.00
10946;BME280;5525;42.648;23.368;2023-05-09T07:12:08;95008.69;;;15.95;100.00
10946;BME280;5525;42.648;23.368;2023-05-09T07:14:35;95009.06;;;16.09;100.00
10946;BME280;5525;42.648;23.368;2023-05-09T07:17:02;95012.50;;;16.22;100.00
10946;BME280;5525;42.648;23.368;2023-05-09T07:19:29;95007.19;;;15.98;100.00
10946;BME280;5525;42.648;23.368;2023-05-09T07:21:56;95017.38;;;16.01;100.00
10946;BME280;5525;42.648;23.368;2023-05-09T07:24:23;95002.53;;;15.98;100.00
10946;BME280;5525;42.648;23.368;2023-05-09T07:26:50;95019.41;;;16.19;100.00
10946;BME280;5525;42.648;23.368;2023-05-09T07:29:19;95013.59;;;16.05;100.00
10946;BME280;5525;42.648;23.368;2023-05-09T07:31:46;95007.69;;;15.88;100.00
10946;BME280;5525;42.648;23.368;2023-05-09T07:34:14;95002.66;;;15.74;100.00
10946;BME280;5525;42.648;23.368;2023-05-09T07:36:44;95011.47;;;15.83;100.00
10946;BME280;5525;42.648;23.368;2023-05-09T07:39:11;95008.69;;;15.95;100.00
10946;BME280;5525;42.648;23.368;2023-05-09T07:41:38;95013.25;;;16.07;100.00
10946;BME280;5525;42.648;23.368;2023-05-09T07:44:05;95014.56;;;15.97;100.00
10946;BME280;5525;42.648;23.368;2023-05-09T07:46:35;95017.13;;;16.06;100.00
10946;BME280;5525;42.648;23.368;2023-05-09T07:49:04;95013.25;;;15.91;100.00
10946;BME280;5525;42.648;23.368;2023-05-09T07:51:32;95009.28;;;15.61;100.00
10946;BME280;5525;42.648;23.368;2023-05-09T07:53:58;95016.34;;;15.78;100.00
10946;BME280;5525;42.648;23.368;2023-05-09T07:56:25;95013.75;;;15.81;100.00
10946;BME280;5525;42.648;23.368;2023-05-09T07:58:52;95020.13;;;16.16;100.00
10946;BME280;5525;42.648;23.368;2023-05-09T08:01:19;95011.94;;;16.16;100.00
10946;BME280;5525;42.648;23.368;2023-05-09T08:03:47;95007.63;;;16.00;100.00
10946;BME280;5525;42.648;23.368;2023-05-09T08:06:14;94999.56;;;16.19;100.00
10946;BME280;5525;42.648;23.368;2023-05-09T08:08:41;95013.22;;;16.34;100.00
10946;BME280;5525;42.648;23.368;2023-05-09T08:11:08;95003.81;;;16.47;100.00
10946;BME280;5525;42.648;23.368;2023-05-09T08:13:35;95006.69;;;16.54;100.00
10946;BME280;5525;42.648;23.368;2023-05-09T08:16:02;95011.72;;;16.83;100.00
10946;BME280;5525;42.648;23.368;2023-05-09T08:18:29;95014.53;;;16.56;100.00
10946;BME280;5525;42.648;23.368;2023-05-09T08:20:57;95015.78;;;16.74;100.00
10946;BME280;5525;42.648;23.368;2023-05-09T08:23:25;95003.94;;;16.85;100.00
10946;BME280;5525;42.648;23.368;2023-05-09T08:25:55;94995.13;;;17.27;100.00
10946;BME280;5525;42.648;23.368;2023-05-09T08:28:23;95010.78;;;18.25;100.00
10946;BME280;5525;42.648;23.368;2023-05-09T08:30:53;95012.81;;;20.98;90.48
10946;BME280;5525;42.648;23.368;2023-05-09T08:33:21;95013.69;;;24.37;63.05
10946;BME280;5525;42.648;23.368;2023-05-09T08:35:49;95018.53;;;25.72;56.01
10946;BME280;5525;42.648;23.368;2023-05-09T08:38:18;95012.81;;;22.97;60.75
10946;BME280;5525;42.648;23.368;2023-05-09T08:40:45;95018.72;;;22.61;64.78
10946;BME280;5525;42.648;23.368;2023-05-09T08:43:13;95016.09;;;21.14;71.47
10946;BME280;5525;42.648;23.368;2023-05-09T08:45:46;95017.88;;;19.82;84.55
10946;BME280;5525;42.648;23.368;2023-05-09T08:48:17;95017.09;;;19.82;84.32
10946;BME280;5525;42.648;23.368;2023-05-09T08:50:44;95018.78;;;20.63;82.06
10946;BME280;5525;42.648;23.368;2023-05-09T08:53:11;95011.66;;;22.91;66.04
10946;BME280;5525;42.648;23.368;2023-05-09T08:55:40;95018.47;;;21.80;68.34
10946;BME280;5525;42.648;23.368;2023-05-09T08:58:07;95014.56;;;21.23;72.97
10946;BME280;5525;42.648;23.368;2023-05-09T09:00:35;95014.19;;;21.25;73.25
10946;BME280;5525;42.648;23.368;2023-05-09T09:03:05;95017.16;;;23.19;64.25
10946;BME280;5525;42.648;23.368;2023-05-09T09:05:35;95014.34;;;22.46;65.37
10946;BME280;5525;42.648;23.368;2023-05-09T09:08:02;95014.22;;;20.81;73.68
10946;BME280;5525;42.648;23.368;2023-05-09T09:10:31;95013.59;;;20.55;78.69
10946;BME280;5525;42.648;23.368;2023-05-09T09:13:05;95014.25;;;20.41;80.41
10946;BME280;5525;42.648;23.368;2023-05-09T09:15:34;95002.34;;;19.05;89.72
10946;BME280;5525;42.648;23.368;2023-05-09T09:18:06;95010.31;;;18.00;100.00
10946;BME280;5525;42.648;23.368;2023-05-09T09:20:36;95013.84;;;17.44;100.00
10946;BME280;5525;42.648;23.368;2023-05-09T09:23:07;95013.47;;;17.45;100.00
10946;BME280;5525;42.648;23.368;2023-05-09T09:25:36;95013.31;;;17.38;100.00
10946;BME280;5525;42.648;23.368;2023-05-09T09:28:05;95013.69;;;17.02;100.00
10946;BME280;5525;42.648;23.368;2023-05-09T09:30:32;95010.94;;;16.52;100.00
10946;BME280;5525;42.648;23.368;2023-05-09T09:32:58;95021.41;;;16.07;100.00
10946;BME280;5525;42.648;23.368;2023-05-09T09:35:26;95024.28;;;15.83;100.00
10946;BME280;5525;42.648;23.368;2023-05-09T09:37:56;95022.19;;;15.92;100.00
10946;BME280;5525;42.648;23.368;2023-05-09T09:40:24;95024.13;;;15.91;100.00
10946;BME280;5525;42.648;23.368;2023-05-09T09:42:52;95020.41;;;15.84;100.00
10946;BME280;5525;42.648;23.368;2023-05-09T09:45:21;95021.03;;;15.77;100.00
10946;BME280;5525;42.648;23.368;2023-05-09T09:47:48;95013.63;;;15.78;100.00
10946;BME280;5525;42.648;23.368;2023-05-09T09:50:16;95024.22;;;15.95;100.00
10946;BME280;5525;42.648;23.368;2023-05-09T09:52:49;95027.75;;;15.95;100.00
10946;BME280;5525;42.648;23.368;2023-05-09T09:55:16;95024.00;;;16.15;100.00
10946;BME280;5525;42.648;23.368;2023-05-09T09:57:43;95022.81;;;16.44;100.00
10946;BME280;5525;42.648;23.368;2023-05-09T10:00:12;95018.97;;;16.60;100.00
10946;BME280;5525;42.648;23.368;2023-05-09T10:02:49;95011.59;;;16.96;100.00
10946;BME280;5525;42.648;23.368;2023-05-09T10:05:23;95015.78;;;17.09;100.00
10946;BME280;5525;42.648;23.368;2023-05-09T10:07:55;95007.38;;;16.82;100.00
10946;BME280;5525;42.648;23.368;2023-05-09T10:10:25;95008.94;;;16.99;100.00
10946;BME280;5525;42.648;23.368;2023-05-09T10:12:53;95003.44;;;17.68;100.00
10946;BME280;5525;42.648;23.368;2023-05-09T10:15:22;95005.16;;;17.76;100.00
10946;BME280;5525;42.648;23.368;2023-05-09T10:17:54;95002.47;;;18.40;100.00
10946;BME280;5525;42.648;23.368;2023-05-09T10:20:22;95003.63;;;18.39;100.00
10946;BME280;5525;42.648;23.368;2023-05-09T10:22:52;95008.72;;;17.99;100.00
10946;BME280;5525;42.648;23.368;2023-05-09T10:25:21;95009.25;;;17.67;100.00
10946;BME280;5525;42.648;23.368;2023-05-09T10:27:53;95010.91;;;17.52;100.00
10946;BME280;5525;42.648;23.368;2023-05-09T10:30:26;95005.97;;;16.73;100.00
10946;BME280;5525;42.648;23.368;2023-05-09T10:32:58;95004.56;;;16.79;100.00
10946;BME280;5525;42.648;23.368;2023-05-09T10:35:31;95000.00;;;16.83;100.00
10946;BME280;5525;42.648;23.368;2023-05-09T10:37:59;95010.56;;;16.38;100.00
10946;BME280;5525;42.648;23.368;2023-05-09T10:40:27;95004.97;;;16.46;100.00
10946;BME280;5525;42.648;23.368;2023-05-09T10:42:55;95011.59;;;16.33;100.00
10946;BME280;5525;42.648;23.368;2023-05-09T10:45:22;95011.00;;;16.40;100.00
10946;BME280;5525;42.648;23.368;2023-05-09T10:47:50;95010.38;;;16.31;100.00
10946;BME280;5525;42.648;23.368;2023-05-09T10:50:20;95004.72;;;17.02;100.00
10946;BME280;5525;42.648;23.368;2023-05-09T10:53:07;95000.56;;;16.57;100.00
10946;BME280;5525;42.648;23.368;2023-05-09T10:55:37;95004.22;;;16.80;100.00
10946;BME280;5525;42.648;23.368;2023-05-09T10:58:23;95009.25;;;16.63;100.00
10946;BME280;5525;42.648;23.368;2023-05-09T11:00:52;95012.59;;;16.56;100.00
10946;BME280;5525;42.648;23.368;2023-05-09T11:03:19;95016.28;;;16.48;100.00
10946;BME280;5525;42.648;23.368;2023-05-09T11:05:49;95009.41;;;16.23;100.00
10946;BME280;5525;42.648;23.368;2023-05-09T11:08:18;95006.16;;;16.33;100.00
10946;BME280;5525;42.648;23.368;2023-05-09T11:10:45;95009.50;;;16.11;100.00
10946;BME280;5525;42.648;23.368;2023-05-09T11:13:13;95007.09;;;15.94;100.00
10946;BME280;5525;42.648;23.368;2023-05-09T11:15:50;95004.03;;;16.42;100.00
10946;BME280;5525;42.648;23.368;2023-05-09T11:18:29;95004.81;;;17.05;100.00
10946;BME280;5525;42.648;23.368;2023-05-09T11:21:02;95000.19;;;16.74;100.00
10946;BME280;5525;42.648;23.368;2023-05-09T11:23:32;94986.31;;;16.64;100.00
10946;BME280;5525;42.648;23.368;2023-05-09T11:26:04;95004.38;;;17.03;100.00
10946;BME280;5525;42.648;23.368;2023-05-09T11:28:33;95010.09;;;16.98;100.00
10946;BME280;5525;42.648;23.368;2023-05-09T11:31:11;95000.69;;;16.96;100.00
10946;BME280;5525;42.648;23.368;2023-05-09T11:33:39;95006.53;;;16.63;100.00
10946;BME280;5525;42.648;23.368;2023-05-09T11:36:18;95015.72;;;16.12;100.00
10946;BME280;5525;42.648;23.368;2023-05-09T11:38:59;95013.28;;;16.38;100.00
10946;BME280;5525;42.648;23.368;2023-05-09T11:41:26;94992.28;;;16.85;100.00
10946;BME280;5525;42.648;23.368;2023-05-09T11:43:53;95001.03;;;16.94;100.00
10946;BME280;5525;42.648;23.368;2023-05-09T11:46:24;95003.09;;;16.66;100.00
10946;BME280;5525;42.648;23.368;2023-05-09T11:48:51;94981.97;;;16.32;100.00
10946;BME280;5525;42.648;23.368;2023-05-09T11:51:20;95010.63;;;16.26;100.00
10946;BME280;5525;42.648;23.368;2023-05-09T11:53:49;95003.00;;;16.16;100.00
10946;BME280;5525;42.648;23.368;2023-05-09T11:56:19;95011.66;;;15.63;100.00
10946;BME280;5525;42.648;23.368;2023-05-09T11:58:49;95008.09;;;15.35;100.00
10946;BME280;5525;42.648;23.368;2023-05-09T12:01:17;95005.22;;;15.55;100.00
10946;BME280;5525;42.648;23.368;2023-05-09T12:03:44;95004.09;;;15.99;100.00
10946;BME280;5525;42.648;23.368;2023-05-09T12:06:14;94988.72;;;16.07;100.00
10946;BME280;5525;42.648;23.368;2023-05-09T12:08:44;94998.06;;;16.21;100.00
10946;BME280;5525;42.648;23.368;2023-05-09T12:11:12;94998.69;;;16.30;100.00
10946;BME280;5525;42.648;23.368;2023-05-09T12:13:46;94999.56;;;16.65;100.00
10946;BME280;5525;42.648;23.368;2023-05-09T12:16:15;95000.91;;;16.40;100.00
10946;BME280;5525;42.648;23.368;2023-05-09T12:18:46;95002.59;;;16.60;100.00
10946;BME280;5525;42.648;23.368;2023-05-09T12:21:13;95002.00;;;16.08;100.00
10946;BME280;5525;42.648;23.368;2023-05-09T12:23:40;95005.63;;;15.69;100.00
10946;BME280;5525;42.648;23.368;2023-05-09T12:26:08;95001.09;;;15.34;100.00
10946;BME280;5525;42.648;23.368;2023-05-09T12:28:35;95000.19;;;14.78;100.00
10946;BME280;5525;42.648;23.368;2023-05-09T12:31:04;94996.47;;;14.46;100.00
10946;BME280;5525;42.648;23.368;2023-05-09T12:33:31;95003.41;;;13.99;100.00
10946;BME280;5525;42.648;23.368;2023-05-09T12:36:03;95007.22;;;13.86;100.00
10946;BME280;5525;42.648;23.368;2023-05-09T12:38:30;94992.16;;;13.77;100.00
10946;BME280;5525;42.648;23.368;2023-05-09T12:41:01;94997.84;;;13.51;100.00
10946;BME280;5525;42.648;23.368;2023-05-09T12:43:39;94998.72;;;13.22;100.00
10946;BME280;5525;42.648;23.368;2023-05-09T12:46:17;95000.38;;;13.35;100.00
10946;BME280;5525;42.648;23.368;2023-05-09T12:48:44;94996.78;;;13.11;100.00
10946;BME280;5525;42.648;23.368;2023-05-09T12:51:14;94995.94;;;12.90;100.00
10946;BME280;5525;42.648;23.368;2023-05-09T12:53:43;94996.47;;;12.83;100.00
10946;BME280;5525;42.648;23.368;2023-05-09T12:56:14;94995.00;;;12.65;100.00
10946;BME280;5525;42.648;23.368;2023-05-09T12:58:48;95000.81;;;12.76;100.00